createdAt,value
2022-10-23T00:01:16.934Z,10.00
2022-10-23T00:03:45.513Z,9.90
2022-10-23T00:06:14.439Z,9.90
2022-10-23T00:08:43.936Z,9.90
2022-10-23T00:11:14.196Z,9.90
2022-10-23T00:13:42.420Z,9.90
2022-10-23T00:16:11.431Z,9.90
2022-10-23T00:18:40.440Z,9.90
2022-10-23T00:21:11.622Z,9.90
2022-10-23T00:23:40.522Z,9.90
2022-10-23T00:26:15.081Z,9.90
2022-10-23T00:28:44.306Z,9.90
2022-10-23T00:31:12.699Z,9.90
2022-10-23T00:33:42.587Z,9.90
2022-10-23T00:36:12.853Z,9.90
2022-10-23T00:38:41.314Z,9.90
2022-10-23T00:41:14.458Z,9.90
2022-10-23T00:44:08.441Z,9.90
2022-10-23T00:46:38.001Z,9.80
2022-10-23T00:49:07.827Z,9.80
2022-10-23T00:51:41.382Z,9.80
2022-10-23T00:54:26.075Z,9.80
2022-10-23T00:57:00.406Z,9.80
2022-10-23T00:59:29.863Z,9.80
2022-10-23T01:01:58.276Z,9.80
2022-10-23T01:04:29.010Z,9.80
2022-10-23T01:07:04.177Z,9.80
2022-10-23T01:09:36.427Z,9.80
2022-10-23T01:12:11.406Z,9.80
2022-10-23T01:14:44.820Z,9.80
2022-10-23T01:17:20.751Z,9.80
2022-10-23T01:20:01.132Z,9.70
2022-10-23T01:22:53.612Z,9.70
2022-10-23T01:25:30.574Z,9.70
2022-10-23T01:28:03.993Z,9.70
2022-10-23T01:30:34.693Z,9.70
2022-10-23T01:33:07.167Z,9.70
2022-10-23T01:35:48.085Z,9.70
2022-10-23T01:38:22.023Z,9.80
2022-10-23T01:40:54.702Z,9.80
2022-10-23T01:43:29.706Z,9.80
2022-10-23T01:46:02.331Z,9.80
2022-10-23T01:48:33.584Z,9.80
2022-10-23T01:51:04.691Z,9.90
2022-10-23T01:53:41.250Z,9.90
2022-10-23T01:56:14.217Z,9.90
2022-10-23T01:58:46.855Z,9.90
2022-10-23T02:01:17.444Z,9.90
2022-10-23T02:03:52.161Z,9.90
2022-10-23T02:06:20.678Z,9.90
2022-10-23T02:08:48.688Z,9.90
2022-10-23T02:11:20.059Z,9.90
2022-10-23T02:13:57.470Z,9.90
2022-10-23T02:16:36.722Z,9.90
2022-10-23T02:19:14.099Z,9.80
2022-10-23T02:21:50.151Z,9.80
2022-10-23T02:24:21.679Z,9.80
2022-10-23T02:26:54.171Z,9.80
2022-10-23T02:29:29.125Z,9.80
2022-10-23T02:32:00.050Z,9.70
2022-10-23T02:34:28.260Z,9.70
2022-10-23T02:36:56.494Z,9.70
2022-10-23T02:39:28.190Z,9.60
2022-10-23T02:42:05.576Z,9.60
2022-10-23T02:44:44.770Z,9.60
2022-10-23T02:47:22.643Z,9.50
2022-10-23T02:50:04.575Z,9.50
2022-10-23T02:52:39.718Z,9.50
2022-10-23T02:55:18.595Z,9.50
2022-10-23T02:57:55.129Z,9.50
2022-10-23T03:00:25.239Z,9.50
2022-10-23T03:02:58.445Z,9.40
2022-10-23T03:05:32.149Z,9.40
2022-10-23T03:08:00.792Z,9.30
2022-10-23T03:10:28.831Z,9.30
2022-10-23T03:12:56.912Z,9.30
2022-10-23T03:15:26.642Z,9.30
2022-10-23T03:17:54.724Z,9.30
2022-10-23T03:20:23.004Z,9.40
2022-10-23T03:22:51.134Z,9.40
2022-10-23T03:25:19.221Z,9.40
2022-10-23T03:27:47.320Z,9.40
2022-10-23T03:30:17.534Z,9.50
2022-10-23T03:32:55.526Z,9.50
2022-10-23T03:35:23.541Z,9.50
2022-10-23T03:37:51.916Z,9.60
2022-10-23T03:40:19.934Z,9.60
2022-10-23T03:42:48.068Z,9.60
2022-10-23T03:45:20.261Z,9.60
2022-10-23T03:47:51.696Z,9.60
2022-10-23T03:50:21.471Z,9.60
2022-10-23T03:52:49.546Z,9.60
2022-10-23T03:55:18.351Z,9.60
2022-10-23T03:57:46.367Z,9.60
2022-10-23T04:00:14.975Z,9.60
2022-10-23T04:02:46.056Z,9.60
2022-10-23T04:05:14.855Z,9.50
2022-10-23T04:07:53.517Z,9.50
2022-10-23T04:10:21.687Z,9.50
2022-10-23T04:12:49.716Z,9.40
2022-10-23T04:15:17.987Z,9.40
2022-10-23T04:17:47.694Z,9.30
2022-10-23T04:20:16.016Z,9.30
2022-10-23T04:22:44.367Z,9.30
2022-10-23T04:25:14.210Z,9.20
2022-10-23T04:27:42.793Z,9.20
2022-10-23T04:30:12.456Z,9.20
2022-10-23T04:32:41.007Z,9.10
2022-10-23T04:35:09.639Z,9.10
2022-10-23T04:37:37.849Z,9.10
2022-10-23T04:40:08.805Z,9.10
2022-10-23T04:42:40.169Z,9.20
2022-10-23T04:45:09.293Z,9.10
2022-10-23T04:47:37.324Z,9.20
2022-10-23T04:50:11.394Z,9.20
2022-10-23T04:52:58.892Z,9.20
2022-10-23T04:55:50.351Z,9.30
2022-10-23T04:58:30.995Z,9.30
2022-10-23T05:00:59.783Z,9.30
2022-10-23T05:03:28.609Z,9.30
2022-10-23T05:05:58.018Z,9.30
2022-10-23T05:08:39.935Z,9.30
2022-10-23T05:11:07.917Z,9.40
2022-10-23T05:13:42.886Z,9.40
2022-10-23T05:16:11.387Z,9.40
2022-10-23T05:18:46.702Z,9.40
2022-10-23T05:21:18.575Z,9.40
2022-10-23T05:23:50.319Z,9.50
2022-10-23T05:26:18.734Z,9.50
2022-10-23T05:28:50.380Z,9.50
2022-10-23T05:31:21.717Z,9.50
2022-10-23T05:33:51.822Z,9.50
2022-10-23T05:36:23.017Z,9.50
2022-10-23T05:38:57.611Z,9.50
2022-10-23T05:41:28.147Z,9.50
2022-10-23T05:44:00.890Z,9.60
2022-10-23T05:46:52.796Z,9.60
2022-10-23T05:49:54.716Z,9.60
2022-10-23T05:52:28.476Z,9.70
2022-10-23T05:55:18.177Z,9.70
2022-10-23T05:57:54.828Z,9.80
2022-10-23T06:00:41.046Z,9.90
2022-10-23T06:03:29.002Z,9.90
2022-10-23T06:05:57.368Z,9.90
2022-10-23T06:08:35.442Z,10.00
2022-10-23T06:11:08.644Z,10.00
2022-10-23T06:13:37.619Z,10.00
2022-10-23T06:16:15.464Z,10.10
2022-10-23T06:18:44.209Z,10.10
2022-10-23T06:21:16.415Z,10.20
2022-10-23T06:23:47.674Z,10.20
2022-10-23T06:26:17.540Z,10.30
2022-10-23T06:28:55.435Z,10.40
2022-10-23T06:31:26.843Z,10.50
2022-10-23T06:33:57.329Z,10.60
2022-10-23T06:36:26.136Z,10.70
2022-10-23T06:41:52.860Z,10.80
2022-10-23T06:44:40.950Z,10.90
2022-10-23T06:47:14.516Z,11.10
2022-10-23T06:50:11.814Z,11.10
2022-10-23T06:52:47.464Z,11.10
2022-10-23T06:55:18.649Z,11.20
2022-10-23T06:57:47.886Z,11.30
2022-10-23T07:00:16.179Z,11.30
2022-10-23T07:02:53.149Z,11.40
2022-10-23T07:05:21.979Z,11.50
2022-10-23T07:07:50.061Z,11.60
2022-10-23T07:10:24.927Z,11.60
2022-10-23T07:13:00.824Z,11.70
2022-10-23T07:15:41.573Z,11.70
2022-10-23T07:18:16.951Z,11.80
2022-10-23T07:21:03.567Z,11.80
2022-10-23T07:23:33.061Z,11.90
2022-10-23T07:26:08.601Z,11.90
2022-10-23T07:28:37.152Z,12.00
2022-10-23T07:31:05.484Z,12.00
2022-10-23T07:33:55.044Z,12.10
2022-10-23T07:36:24.091Z,12.20
2022-10-23T07:38:53.143Z,12.20
2022-10-23T07:41:22.269Z,12.30
2022-10-23T07:43:50.715Z,12.40
2022-10-23T07:46:18.893Z,12.40
2022-10-23T07:48:47.200Z,12.40
2022-10-23T07:51:18.528Z,12.50
2022-10-23T07:53:50.410Z,12.60
2022-10-23T07:56:35.592Z,12.70
2022-10-23T07:59:13.267Z,12.70
2022-10-23T08:01:43.438Z,12.80
2022-10-23T08:04:12.216Z,12.90
2022-10-23T08:06:50.416Z,13.00
2022-10-23T08:09:19.102Z,13.00
2022-10-23T08:11:47.412Z,13.10
2022-10-23T08:14:18.436Z,13.00
2022-10-23T08:16:47.876Z,13.10
2022-10-23T08:19:36.203Z,13.10
2022-10-23T08:22:06.044Z,13.20
2022-10-23T08:24:34.500Z,13.30
2022-10-23T08:27:02.532Z,13.30
2022-10-23T08:29:32.053Z,13.40
2022-10-23T08:32:00.605Z,13.50
2022-10-23T08:34:34.061Z,13.60
2022-10-23T08:37:05.394Z,13.70
2022-10-23T08:39:35.515Z,13.80
2022-10-23T08:42:21.245Z,13.90
2022-10-23T08:44:56.775Z,14.00
2022-10-23T08:47:31.848Z,14.10
2022-10-23T08:50:26.980Z,14.10
2022-10-23T08:53:04.080Z,14.10
2022-10-23T08:55:36.125Z,14.20
2022-10-23T08:58:08.006Z,14.20
2022-10-23T09:00:36.169Z,14.30
2022-10-23T09:03:06.281Z,14.30
2022-10-23T09:05:40.843Z,14.40
2022-10-23T09:08:37.000Z,14.60
2022-10-23T09:11:12.509Z,14.60
2022-10-23T09:13:59.513Z,14.70
2022-10-23T09:16:41.636Z,14.70
2022-10-23T09:19:13.483Z,14.80
2022-10-23T09:21:41.894Z,14.80
2022-10-23T09:24:17.833Z,14.90
2022-10-23T09:26:48.436Z,14.90
2022-10-23T09:29:23.880Z,14.90
2022-10-23T09:31:53.137Z,15.00
2022-10-23T09:34:24.081Z,15.00
2022-10-23T09:39:31.927Z,15.10
2022-10-23T09:42:02.460Z,15.20
2022-10-23T09:44:32.976Z,15.30
2022-10-23T09:47:02.400Z,15.40
2022-10-23T09:49:32.117Z,15.50
2022-10-23T09:52:21.039Z,15.50
2022-10-23T09:54:54.157Z,15.50
2022-10-23T09:57:25.809Z,15.50
2022-10-23T09:59:55.509Z,15.60
2022-10-23T10:02:29.523Z,15.60
2022-10-23T10:05:23.319Z,15.70
2022-10-23T10:07:57.617Z,15.70
2022-10-23T10:10:30.225Z,15.80
2022-10-23T10:13:02.525Z,15.80
2022-10-23T10:15:38.317Z,15.90
2022-10-23T10:18:15.822Z,16.00
2022-10-23T10:21:10.553Z,16.20
2022-10-23T10:23:46.853Z,16.30
2022-10-23T10:29:10.641Z,16.50
2022-10-23T10:31:52.201Z,16.60
2022-10-23T10:34:29.751Z,16.70
2022-10-23T10:37:02.064Z,16.80
2022-10-23T10:39:39.787Z,16.90
2022-10-23T10:42:50.948Z,17.00
2022-10-23T10:45:27.027Z,17.00
2022-10-23T10:48:08.386Z,17.10
2022-10-23T10:51:02.674Z,17.20
2022-10-23T10:53:54.245Z,17.20
2022-10-23T10:56:26.729Z,17.20
2022-10-23T10:59:01.309Z,17.20
2022-10-23T11:01:34.268Z,17.20
2022-10-23T11:04:07.811Z,17.30
2022-10-23T11:06:38.945Z,17.30
2022-10-23T11:09:20.737Z,17.40
2022-10-23T11:11:50.033Z,17.40
2022-10-23T11:14:22.223Z,17.50
2022-10-23T11:16:52.744Z,17.60
2022-10-23T11:19:25.904Z,17.70
2022-10-23T11:21:59.258Z,17.80
2022-10-23T11:25:12.596Z,17.90
2022-10-23T11:28:10.738Z,18.10
2022-10-23T11:30:59.505Z,18.20
2022-10-23T11:33:57.223Z,18.50
2022-10-23T11:36:42.432Z,18.60
2022-10-23T11:39:20.144Z,18.80
2022-10-23T11:42:00.087Z,19.00
2022-10-23T11:44:43.507Z,19.10
2022-10-23T11:47:40.055Z,19.20
2022-10-23T11:50:16.894Z,19.40
2022-10-23T11:53:13.688Z,19.50
2022-10-23T11:55:59.008Z,19.60
2022-10-23T11:58:32.054Z,19.60
2022-10-23T12:01:06.818Z,19.70
2022-10-23T12:03:43.467Z,19.80
2022-10-23T12:06:22.845Z,19.90
2022-10-23T12:08:57.653Z,19.90
2022-10-23T12:11:41.524Z,20.00
2022-10-23T12:14:31.472Z,20.00
2022-10-23T12:16:59.704Z,20.00
2022-10-23T12:19:31.085Z,20.10
2022-10-23T12:22:02.268Z,20.10
2022-10-23T12:24:45.861Z,20.20
2022-10-23T12:27:38.796Z,20.20
2022-10-23T12:30:23.629Z,20.20
2022-10-23T12:33:05.230Z,20.20
2022-10-23T12:35:50.898Z,20.20
2022-10-23T12:38:21.701Z,20.20
2022-10-23T12:40:53.603Z,20.30
2022-10-23T12:43:28.251Z,20.30
2022-10-23T12:45:58.235Z,20.40
2022-10-23T12:48:26.478Z,20.40
2022-10-23T12:50:57.463Z,20.40
2022-10-23T12:53:25.633Z,20.50
2022-10-23T12:55:58.145Z,20.50
2022-10-23T12:58:27.612Z,20.50
2022-10-23T13:01:00.930Z,20.60
2022-10-23T13:03:31.376Z,20.50
2022-10-23T13:06:03.497Z,20.60
2022-10-23T13:08:35.827Z,20.60
2022-10-23T13:11:22.848Z,20.60
2022-10-23T13:13:53.201Z,20.70
2022-10-23T13:16:23.681Z,20.80
2022-10-23T13:18:53.556Z,20.90
2022-10-23T13:21:25.195Z,20.90
2022-10-23T13:23:54.338Z,20.90
2022-10-23T13:26:26.964Z,20.90
2022-10-23T13:28:55.132Z,21.00
2022-10-23T13:31:29.467Z,21.00
2022-10-23T13:34:17.179Z,21.10
2022-10-23T13:36:58.070Z,21.10
2022-10-23T13:39:29.783Z,21.10
2022-10-23T13:42:02.496Z,21.10
2022-10-23T13:44:30.541Z,21.20
2022-10-23T13:46:58.533Z,21.40
2022-10-23T13:49:26.607Z,21.50
2022-10-23T13:51:57.410Z,21.70
2022-10-23T13:57:00.489Z,21.90
2022-10-23T13:59:28.517Z,22.10
2022-10-23T14:01:56.650Z,22.20
2022-10-23T14:04:24.797Z,22.20
2022-10-23T14:06:58.310Z,22.10
2022-10-23T14:09:27.700Z,22.00
2022-10-23T14:11:55.806Z,21.90
2022-10-23T14:14:25.388Z,21.80
2022-10-23T14:16:54.807Z,21.80
2022-10-23T14:19:22.810Z,21.80
2022-10-23T14:21:50.856Z,21.90
2022-10-23T14:24:18.819Z,22.00
2022-10-23T14:26:48.361Z,22.00
2022-10-23T14:29:23.072Z,21.90
2022-10-23T14:31:52.212Z,21.90
2022-10-23T14:34:20.275Z,21.80
2022-10-23T14:36:50.359Z,21.80
2022-10-23T14:39:19.299Z,21.70
2022-10-23T14:41:48.784Z,21.60
2022-10-23T14:44:16.944Z,21.50
2022-10-23T14:46:44.951Z,21.40
2022-10-23T14:49:13.033Z,21.20
2022-10-23T14:51:41.526Z,21.00
2022-10-23T14:54:09.763Z,20.90
2022-10-23T14:56:39.994Z,20.80
2022-10-23T14:59:11.690Z,20.60
2022-10-23T15:01:45.183Z,20.40
2022-10-23T15:04:16.547Z,20.20
2022-10-23T15:06:46.247Z,20.00
2022-10-23T15:09:14.793Z,19.90
2022-10-23T15:11:42.847Z,19.70
2022-10-23T15:14:12.755Z,19.60
2022-10-23T15:16:42.160Z,19.50
2022-10-23T15:19:13.736Z,19.40
2022-10-23T15:21:45.929Z,19.20
2022-10-23T15:24:14.027Z,19.10
2022-10-23T15:26:43.275Z,18.90
2022-10-23T15:29:14.787Z,18.80
2022-10-23T15:31:48.946Z,18.70
2022-10-23T15:34:19.782Z,18.60
2022-10-23T15:36:48.782Z,18.40
2022-10-23T15:39:19.770Z,18.30
2022-10-23T15:41:47.949Z,18.20
2022-10-23T15:44:19.705Z,18.20
2022-10-23T15:46:48.318Z,18.10
2022-10-23T15:49:17.116Z,18.00
2022-10-23T15:51:45.872Z,17.90
2022-10-23T15:54:18.390Z,17.80
2022-10-23T15:56:47.483Z,17.70
2022-10-23T15:59:17.522Z,17.60
2022-10-23T16:01:45.783Z,17.50
2022-10-23T16:04:14.200Z,17.40
2022-10-23T16:06:42.432Z,17.30
2022-10-23T16:09:11.061Z,17.20
2022-10-23T16:11:41.324Z,17.10
2022-10-23T16:14:13.418Z,17.00
2022-10-23T16:16:43.204Z,16.90
2022-10-23T16:19:12.640Z,16.80
2022-10-23T16:21:40.771Z,16.70
2022-10-23T16:24:09.794Z,16.60
2022-10-23T16:26:38.793Z,16.50
2022-10-23T16:29:08.421Z,16.40
2022-10-23T16:31:36.851Z,16.40
2022-10-23T16:34:07.215Z,16.30
2022-10-23T16:36:38.901Z,16.20
2022-10-23T16:39:27.340Z,16.10
2022-10-23T16:42:14.338Z,16.00
2022-10-23T16:45:04.544Z,16.00
2022-10-23T16:47:33.090Z,15.90
2022-10-23T16:50:02.632Z,15.80
2022-10-23T16:52:30.858Z,15.70
2022-10-23T16:54:58.865Z,15.70
2022-10-23T16:57:28.006Z,15.60
2022-10-23T16:59:56.213Z,15.60
2022-10-23T17:02:24.358Z,15.50
2022-10-23T17:04:52.487Z,15.40
2022-10-23T17:07:23.744Z,15.40
2022-10-23T17:09:52.180Z,15.40
2022-10-23T17:12:20.205Z,15.30
2022-10-23T17:14:48.300Z,15.20
2022-10-23T17:17:16.338Z,15.20
2022-10-23T17:19:46.053Z,15.20
2022-10-23T17:22:15.209Z,15.20
2022-10-23T17:24:47.479Z,15.10
2022-10-23T17:27:18.379Z,15.10
2022-10-23T17:29:46.520Z,15.10
2022-10-23T17:32:14.558Z,15.00
2022-10-23T17:34:42.627Z,15.00
2022-10-23T17:37:13.243Z,15.00
2022-10-23T17:39:42.284Z,15.00
2022-10-23T17:42:11.774Z,14.90
2022-10-23T17:44:39.769Z,14.90
2022-10-23T17:47:07.812Z,14.90
2022-10-23T17:49:36.006Z,14.90
2022-10-23T17:52:04.493Z,14.90
2022-10-23T17:54:32.540Z,14.90
2022-10-23T17:57:00.522Z,14.80
2022-10-23T17:59:30.000Z,14.80
2022-10-23T18:02:00.020Z,14.80
2022-10-23T18:04:28.355Z,14.80
2022-10-23T18:06:56.337Z,14.70
2022-10-23T18:09:24.603Z,14.70
2022-10-23T18:11:53.001Z,14.70
2022-10-23T18:14:22.232Z,14.70
2022-10-23T18:16:52.597Z,14.60
2022-10-23T18:19:20.794Z,14.60
2022-10-23T18:21:49.403Z,14.60
2022-10-23T18:24:18.516Z,14.60
2022-10-23T18:26:48.004Z,14.50
2022-10-23T18:29:17.405Z,14.50
2022-10-23T18:31:48.298Z,14.50
2022-10-23T18:34:20.459Z,14.50
2022-10-23T18:36:50.805Z,14.50
2022-10-23T18:39:22.262Z,14.40
2022-10-23T18:41:52.158Z,14.40
2022-10-23T18:44:22.425Z,14.30
2022-10-23T18:46:51.507Z,14.30
2022-10-23T18:49:21.646Z,14.30
2022-10-23T18:51:50.803Z,14.20
2022-10-23T18:54:20.221Z,14.20
2022-10-23T18:56:48.848Z,14.20
2022-10-23T18:59:18.774Z,14.20
2022-10-23T19:01:46.922Z,14.20
2022-10-23T19:04:17.632Z,14.10
2022-10-23T19:06:50.645Z,14.10
2022-10-23T19:09:19.342Z,14.10
2022-10-23T19:11:47.595Z,14.10
2022-10-23T19:14:15.585Z,14.10
2022-10-23T19:16:48.318Z,14.10
2022-10-23T19:19:23.200Z,14.10
2022-10-23T19:21:53.867Z,14.10
2022-10-23T19:24:24.255Z,14.00
2022-10-23T19:26:52.641Z,14.00
2022-10-23T19:29:24.130Z,14.00
2022-10-23T19:31:52.253Z,14.00
2022-10-23T19:34:22.591Z,14.00
2022-10-23T19:36:52.885Z,13.90
2022-10-23T19:39:21.007Z,13.90
2022-10-23T19:41:51.430Z,13.90
2022-10-23T19:44:20.072Z,13.90
2022-10-23T19:46:48.512Z,13.80
2022-10-23T19:49:16.883Z,13.80
2022-10-23T19:51:50.679Z,13.80
2022-10-23T19:54:21.564Z,13.80
2022-10-23T19:56:50.404Z,13.80
2022-10-23T19:59:18.712Z,13.80
2022-10-23T20:01:48.913Z,13.80
2022-10-23T20:04:18.207Z,13.70
2022-10-23T20:06:46.488Z,13.70
2022-10-23T20:09:14.497Z,13.70
2022-10-23T20:11:45.267Z,13.70
2022-10-23T20:14:14.003Z,13.70
2022-10-23T20:16:44.776Z,13.70
2022-10-23T20:19:15.085Z,13.60
2022-10-23T20:21:45.551Z,13.60
2022-10-23T20:24:16.283Z,13.60
2022-10-23T20:26:49.104Z,13.60
2022-10-23T20:29:17.391Z,13.60
2022-10-23T20:31:45.453Z,13.60
2022-10-23T20:34:14.004Z,13.60
2022-10-23T20:36:46.559Z,13.60
2022-10-23T20:39:17.228Z,13.60
2022-10-23T20:41:46.880Z,13.60
2022-10-23T20:46:46.407Z,13.60
2022-10-23T20:49:15.051Z,13.60
2022-10-23T20:51:43.802Z,13.60
2022-10-23T20:54:12.259Z,13.60
2022-10-23T20:56:40.832Z,13.60
2022-10-23T20:59:12.697Z,13.60
2022-10-23T21:01:42.263Z,13.70
2022-10-23T21:04:12.920Z,13.70
2022-10-23T21:06:57.662Z,13.60
2022-10-23T21:09:31.315Z,13.60
2022-10-23T21:11:59.466Z,13.60
2022-10-23T21:14:28.988Z,13.60
2022-10-23T21:16:57.078Z,13.70
2022-10-23T21:19:25.270Z,13.60
2022-10-23T21:21:53.389Z,13.60
2022-10-23T21:24:21.436Z,13.60
2022-10-23T21:26:49.459Z,13.70
2022-10-23T21:29:19.132Z,13.70
2022-10-23T21:31:54.597Z,13.70
2022-10-23T21:34:23.028Z,13.70
2022-10-23T21:37:11.789Z,13.70
2022-10-23T21:39:39.334Z,13.70
2022-10-23T21:42:07.370Z,13.80
2022-10-23T21:44:35.443Z,13.80
2022-10-23T21:47:05.008Z,13.90
2022-10-23T21:49:33.295Z,13.90
2022-10-23T21:52:02.160Z,13.90
2022-10-23T21:54:30.235Z,13.90
2022-10-23T21:56:58.254Z,13.90
2022-10-23T21:59:30.338Z,13.90
2022-10-23T22:02:00.416Z,13.90
2022-10-23T22:04:29.846Z,14.00
2022-10-23T22:06:57.969Z,14.00
2022-10-23T22:09:28.349Z,14.00
2022-10-23T22:11:56.510Z,14.00
2022-10-23T22:14:24.534Z,14.10
2022-10-23T22:16:53.187Z,14.10
2022-10-23T22:19:23.195Z,14.10
2022-10-23T22:21:52.995Z,14.10
2022-10-23T22:24:21.581Z,14.10
2022-10-23T22:26:52.450Z,14.10
2022-10-23T22:29:22.655Z,14.10
2022-10-23T22:31:51.868Z,14.10
2022-10-23T22:34:47.742Z,14.20
2022-10-23T22:37:12.701Z,14.20
2022-10-23T22:39:41.372Z,14.10
2022-10-23T22:42:10.955Z,14.10
2022-10-23T22:44:39.085Z,14.20
2022-10-23T22:47:07.318Z,14.20
2022-10-23T22:49:35.361Z,14.20
2022-10-23T22:52:03.468Z,14.10
2022-10-23T22:54:32.975Z,14.10
2022-10-23T22:57:01.003Z,14.10
2022-10-23T22:59:29.329Z,14.10
2022-10-23T23:01:57.582Z,14.20
2022-10-23T23:04:42.569Z,14.20
2022-10-23T23:07:12.854Z,14.20
2022-10-23T23:09:44.380Z,14.20
2022-10-23T23:12:14.077Z,14.20
2022-10-23T23:14:42.263Z,14.20
2022-10-23T23:17:11.087Z,14.20
2022-10-23T23:19:39.482Z,14.20
2022-10-23T23:22:07.652Z,14.20
2022-10-23T23:24:35.745Z,14.20
2022-10-23T23:27:05.255Z,14.20
2022-10-23T23:29:33.304Z,14.20
2022-10-23T23:32:01.865Z,14.20
2022-10-23T23:34:30.264Z,14.20
2022-10-23T23:36:58.404Z,14.20
2022-10-23T23:39:28.511Z,14.20
2022-10-23T23:41:56.860Z,14.20
2022-10-23T23:44:26.506Z,14.20
2022-10-23T23:46:54.656Z,14.20
2022-10-23T23:49:22.789Z,14.20
2022-10-23T23:51:51.571Z,14.20
2022-10-23T23:54:19.596Z,14.20
2022-10-23T23:56:47.726Z,14.20
2022-10-23T23:59:15.889Z,14.20
